sensor_id;sensor_type;location;lat;lon;timestamp;temperature;humidity
27978;DHT22;15314;49.248;6.968;2022-07-17T00:00:08;18.50;59.60
27978;DHT22;15314;49.248;6.968;2022-07-17T00:01:09;18.50;59.80
27978;DHT22;15314;49.248;6.968;2022-07-17T00:02:10;18.50;59.40
27978;DHT22;15314;49.248;6.968;2022-07-17T00:03:16;18.40;59.50
27978;DHT22;15314;49.248;6.968;2022-07-17T00:04:16;18.50;59.40
27978;DHT22;15314;49.248;6.968;2022-07-17T00:05:17;18.50;59.30
27978;DHT22;15314;49.248;6.968;2022-07-17T00:06:17;18.50;59.70
27978;DHT22;15314;49.248;6.968;2022-07-17T00:07:18;18.50;59.50
27978;DHT22;15314;49.248;6.968;2022-07-17T00:08:19;18.60;59.40
27978;DHT22;15314;49.248;6.968;2022-07-17T00:09:19;18.50;59.60
27978;DHT22;15314;49.248;6.968;2022-07-17T00:10:20;18.50;59.80
27978;DHT22;15314;49.248;6.968;2022-07-17T00:11:21;18.40;59.80
27978;DHT22;15314;49.248;6.968;2022-07-17T00:12:21;18.40;60.10
27978;DHT22;15314;49.248;6.968;2022-07-17T00:13:22;18.40;60.20
27978;DHT22;15314;49.248;6.968;2022-07-17T00:14:22;18.30;60.10
27978;DHT22;15314;49.248;6.968;2022-07-17T00:15:24;18.30;60.60
27978;DHT22;15314;49.248;6.968;2022-07-17T00:16:24;18.30;60.00
27978;DHT22;15314;49.248;6.968;2022-07-17T00:17:25;18.30;60.30
27978;DHT22;15314;49.248;6.968;2022-07-17T00:18:26;18.20;60.40
27978;DHT22;15314;49.248;6.968;2022-07-17T00:19:27;18.20;60.40
27978;DHT22;15314;49.248;6.968;2022-07-17T00:20:29;18.20;60.50
27978;DHT22;15314;49.248;6.968;2022-07-17T00:21:30;18.20;60.60
27978;DHT22;15314;49.248;6.968;2022-07-17T00:22:31;18.10;60.70
27978;DHT22;15314;49.248;6.968;2022-07-17T00:23:31;18.10;60.70
27978;DHT22;15314;49.248;6.968;2022-07-17T00:24:32;18.10;60.80
27978;DHT22;15314;49.248;6.968;2022-07-17T00:25:33;18.10;60.70
27978;DHT22;15314;49.248;6.968;2022-07-17T00:26:33;18.10;60.60
27978;DHT22;15314;49.248;6.968;2022-07-17T00:27:34;18.10;60.50
27978;DHT22;15314;49.248;6.968;2022-07-17T00:28:35;18.10;60.90
27978;DHT22;15314;49.248;6.968;2022-07-17T00:29:35;18.10;61.00
27978;DHT22;15314;49.248;6.968;2022-07-17T00:30:36;18.00;60.90
27978;DHT22;15314;49.248;6.968;2022-07-17T00:31:38;18.00;60.90
27978;DHT22;15314;49.248;6.968;2022-07-17T00:32:40;18.00;61.00
27978;DHT22;15314;49.248;6.968;2022-07-17T00:33:40;18.00;61.80
27978;DHT22;15314;49.248;6.968;2022-07-17T00:34:41;18.00;60.90
27978;DHT22;15314;49.248;6.968;2022-07-17T00:35:42;18.00;61.30
27978;DHT22;15314;49.248;6.968;2022-07-17T00:36:43;18.10;61.80
27978;DHT22;15314;49.248;6.968;2022-07-17T00:37:45;18.10;61.40
27978;DHT22;15314;49.248;6.968;2022-07-17T00:38:46;18.10;61.10
27978;DHT22;15314;49.248;6.968;2022-07-17T00:39:46;18.10;61.00
27978;DHT22;15314;49.248;6.968;2022-07-17T00:40:47;18.00;61.00
27978;DHT22;15314;49.248;6.968;2022-07-17T00:41:48;18.00;61.00
27978;DHT22;15314;49.248;6.968;2022-07-17T00:42:49;17.90;61.20
27978;DHT22;15314;49.248;6.968;2022-07-17T00:43:50;17.90;61.30
27978;DHT22;15314;49.248;6.968;2022-07-17T00:44:52;17.90;61.60
27978;DHT22;15314;49.248;6.968;2022-07-17T00:46:00;17.90;61.70
27978;DHT22;15314;49.248;6.968;2022-07-17T00:47:00;17.90;61.60
27978;DHT22;15314;49.248;6.968;2022-07-17T00:48:04;17.80;61.60
27978;DHT22;15314;49.248;6.968;2022-07-17T00:49:06;17.80;61.80
27978;DHT22;15314;49.248;6.968;2022-07-17T00:50:07;17.80;61.80
27978;DHT22;15314;49.248;6.968;2022-07-17T00:51:08;17.80;61.80
27978;DHT22;15314;49.248;6.968;2022-07-17T00:52:11;17.80;61.80
27978;DHT22;15314;49.248;6.968;2022-07-17T00:53:11;17.70;61.80
27978;DHT22;15314;49.248;6.968;2022-07-17T00:54:13;17.80;62.00
27978;DHT22;15314;49.248;6.968;2022-07-17T00:55:17;17.80;62.00
27978;DHT22;15314;49.248;6.968;2022-07-17T00:56:21;17.80;61.80
27978;DHT22;15314;49.248;6.968;2022-07-17T00:57:22;17.70;62.00
27978;DHT22;15314;49.248;6.968;2022-07-17T00:58:26;17.70;62.00
27978;DHT22;15314;49.248;6.968;2022-07-17T00:59:30;17.60;62.10
27978;DHT22;15314;49.248;6.968;2022-07-17T01:00:31;17.60;62.10
27978;DHT22;15314;49.248;6.968;2022-07-17T01:01:32;17.50;62.40
27978;DHT22;15314;49.248;6.968;2022-07-17T01:02:32;17.60;62.80
27978;DHT22;15314;49.248;6.968;2022-07-17T01:03:33;17.50;62.70
27978;DHT22;15314;49.248;6.968;2022-07-17T01:04:35;17.50;62.60
27978;DHT22;15314;49.248;6.968;2022-07-17T01:05:35;17.50;63.00
27978;DHT22;15314;49.248;6.968;2022-07-17T01:06:36;17.50;62.40
27978;DHT22;15314;49.248;6.968;2022-07-17T01:07:37;17.50;62.30
27978;DHT22;15314;49.248;6.968;2022-07-17T01:08:37;17.50;62.50
27978;DHT22;15314;49.248;6.968;2022-07-17T01:09:38;17.50;62.10
27978;DHT22;15314;49.248;6.968;2022-07-17T01:10:39;17.60;62.20
27978;DHT22;15314;49.248;6.968;2022-07-17T01:11:40;17.60;62.50
27978;DHT22;15314;49.248;6.968;2022-07-17T01:12:41;17.60;62.40
27978;DHT22;15314;49.248;6.968;2022-07-17T01:13:42;17.60;62.00
27978;DHT22;15314;49.248;6.968;2022-07-17T01:14:43;17.60;62.00
27978;DHT22;15314;49.248;6.968;2022-07-17T01:15:44;17.60;62.10
27978;DHT22;15314;49.248;6.968;2022-07-17T01:16:46;17.60;62.30
27978;DHT22;15314;49.248;6.968;2022-07-17T01:17:46;17.60;62.30
27978;DHT22;15314;49.248;6.968;2022-07-17T01:18:48;17.60;62.20
27978;DHT22;15314;49.248;6.968;2022-07-17T01:19:48;17.60;61.90
27978;DHT22;15314;49.248;6.968;2022-07-17T01:20:50;17.60;62.10
27978;DHT22;15314;49.248;6.968;2022-07-17T01:21:50;17.50;62.10
27978;DHT22;15314;49.248;6.968;2022-07-17T01:22:52;17.50;62.60
27978;DHT22;15314;49.248;6.968;2022-07-17T01:23:52;17.50;62.60
27978;DHT22;15314;49.248;6.968;2022-07-17T01:24:53;17.40;63.20
27978;DHT22;15314;49.248;6.968;2022-07-17T01:25:53;17.40;63.00
27978;DHT22;15314;49.248;6.968;2022-07-17T01:26:54;17.30;63.30
27978;DHT22;15314;49.248;6.968;2022-07-17T01:27:55;17.30;62.90
27978;DHT22;15314;49.248;6.968;2022-07-17T01:28:55;17.30;63.00
27978;DHT22;15314;49.248;6.968;2022-07-17T01:29:56;17.40;62.80
27978;DHT22;15314;49.248;6.968;2022-07-17T01:31:00;17.30;63.10
27978;DHT22;15314;49.248;6.968;2022-07-17T01:32:01;17.30;63.50
27978;DHT22;15314;49.248;6.968;2022-07-17T01:33:02;17.20;63.20
27978;DHT22;15314;49.248;6.968;2022-07-17T01:34:05;17.20;63.20
27978;DHT22;15314;49.248;6.968;2022-07-17T01:35:07;17.20;63.80
27978;DHT22;15314;49.248;6.968;2022-07-17T01:36:08;17.20;63.90
27978;DHT22;15314;49.248;6.968;2022-07-17T01:37:08;17.10;63.70
27978;DHT22;15314;49.248;6.968;2022-07-17T01:38:09;17.10;63.40
27978;DHT22;15314;49.248;6.968;2022-07-17T01:39:10;17.10;63.70
27978;DHT22;15314;49.248;6.968;2022-07-17T01:40:12;17.00;63.40
27978;DHT22;15314;49.248;6.968;2022-07-17T01:41:13;17.00;63.50
27978;DHT22;15314;49.248;6.968;2022-07-17T01:42:14;17.00;63.60
27978;DHT22;15314;49.248;6.968;2022-07-17T01:43:14;17.00;63.50
27978;DHT22;15314;49.248;6.968;2022-07-17T01:44:15;17.00;63.40
27978;DHT22;15314;49.248;6.968;2022-07-17T01:45:17;17.00;63.70
27978;DHT22;15314;49.248;6.968;2022-07-17T01:46:18;17.00;63.70
27978;DHT22;15314;49.248;6.968;2022-07-17T01:47:19;17.00;63.40
27978;DHT22;15314;49.248;6.968;2022-07-17T01:48:27;17.10;63.40
27978;DHT22;15314;49.248;6.968;2022-07-17T01:49:29;17.10;64.10
27978;DHT22;15314;49.248;6.968;2022-07-17T01:50:29;17.10;63.60
27978;DHT22;15314;49.248;6.968;2022-07-17T01:51:30;17.10;63.30
27978;DHT22;15314;49.248;6.968;2022-07-17T01:52:30;17.00;63.50
27978;DHT22;15314;49.248;6.968;2022-07-17T01:53:31;16.90;64.10
27978;DHT22;15314;49.248;6.968;2022-07-17T01:54:33;16.90;64.10
27978;DHT22;15314;49.248;6.968;2022-07-17T01:55:33;16.90;63.90
27978;DHT22;15314;49.248;6.968;2022-07-17T01:56:34;16.80;64.00
27978;DHT22;15314;49.248;6.968;2022-07-17T01:57:34;16.80;63.90
27978;DHT22;15314;49.248;6.968;2022-07-17T01:58:35;16.80;64.10
27978;DHT22;15314;49.248;6.968;2022-07-17T01:59:36;16.80;63.90
27978;DHT22;15314;49.248;6.968;2022-07-17T02:00:37;16.90;64.50
27978;DHT22;15314;49.248;6.968;2022-07-17T02:01:38;16.90;64.30
27978;DHT22;15314;49.248;6.968;2022-07-17T02:02:38;16.80;64.70
27978;DHT22;15314;49.248;6.968;2022-07-17T02:03:39;16.80;64.40
27978;DHT22;15314;49.248;6.968;2022-07-17T02:04:40;16.70;64.80
27978;DHT22;15314;49.248;6.968;2022-07-17T02:05:43;16.60;64.90
27978;DHT22;15314;49.248;6.968;2022-07-17T02:06:44;16.70;65.00
27978;DHT22;15314;49.248;6.968;2022-07-17T02:07:44;16.60;64.90
27978;DHT22;15314;49.248;6.968;2022-07-17T02:08:45;16.50;64.90
27978;DHT22;15314;49.248;6.968;2022-07-17T02:09:46;16.60;64.90
27978;DHT22;15314;49.248;6.968;2022-07-17T02:10:46;16.60;64.80
27978;DHT22;15314;49.248;6.968;2022-07-17T02:11:47;16.60;64.60
27978;DHT22;15314;49.248;6.968;2022-07-17T02:12:48;16.60;64.90
27978;DHT22;15314;49.248;6.968;2022-07-17T02:13:48;16.70;64.80
27978;DHT22;15314;49.248;6.968;2022-07-17T02:14:49;16.60;64.90
27978;DHT22;15314;49.248;6.968;2022-07-17T02:15:49;16.60;64.70
27978;DHT22;15314;49.248;6.968;2022-07-17T02:16:50;16.70;64.90
27978;DHT22;15314;49.248;6.968;2022-07-17T02:17:51;16.60;64.40
27978;DHT22;15314;49.248;6.968;2022-07-17T02:18:51;16.70;64.30
27978;DHT22;15314;49.248;6.968;2022-07-17T02:19:52;16.70;64.10
27978;DHT22;15314;49.248;6.968;2022-07-17T02:20:52;16.70;64.10
27978;DHT22;15314;49.248;6.968;2022-07-17T02:21:53;16.60;63.80
27978;DHT22;15314;49.248;6.968;2022-07-17T02:22:54;16.60;63.90
27978;DHT22;15314;49.248;6.968;2022-07-17T02:23:54;16.60;63.90
27978;DHT22;15314;49.248;6.968;2022-07-17T02:24:55;16.50;64.20
27978;DHT22;15314;49.248;6.968;2022-07-17T02:25:56;16.40;64.50
27978;DHT22;15314;49.248;6.968;2022-07-17T02:26:56;16.40;64.30
27978;DHT22;15314;49.248;6.968;2022-07-17T02:27:59;16.40;64.40
27978;DHT22;15314;49.248;6.968;2022-07-17T02:29:00;16.30;64.60
27978;DHT22;15314;49.248;6.968;2022-07-17T02:30:12;16.30;64.40
27978;DHT22;15314;49.248;6.968;2022-07-17T02:31:13;16.30;64.80
27978;DHT22;15314;49.248;6.968;2022-07-17T02:32:13;16.30;64.90
27978;DHT22;15314;49.248;6.968;2022-07-17T02:33:14;16.30;64.90
27978;DHT22;15314;49.248;6.968;2022-07-17T02:34:14;16.30;64.80
27978;DHT22;15314;49.248;6.968;2022-07-17T02:35:15;16.40;64.90
27978;DHT22;15314;49.248;6.968;2022-07-17T02:36:16;16.30;65.10
27978;DHT22;15314;49.248;6.968;2022-07-17T02:37:16;16.40;64.80
27978;DHT22;15314;49.248;6.968;2022-07-17T02:38:17;16.40;64.80
27978;DHT22;15314;49.248;6.968;2022-07-17T02:39:17;16.40;64.60
27978;DHT22;15314;49.248;6.968;2022-07-17T02:40:18;16.40;64.70
27978;DHT22;15314;49.248;6.968;2022-07-17T02:41:19;16.40;64.50
27978;DHT22;15314;49.248;6.968;2022-07-17T02:42:20;16.40;64.40
27978;DHT22;15314;49.248;6.968;2022-07-17T02:43:21;16.30;64.40
27978;DHT22;15314;49.248;6.968;2022-07-17T02:44:22;16.20;64.60
27978;DHT22;15314;49.248;6.968;2022-07-17T02:45:22;16.10;64.60
27978;DHT22;15314;49.248;6.968;2022-07-17T02:46:25;16.10;65.30
27978;DHT22;15314;49.248;6.968;2022-07-17T02:47:31;16.10;65.30
27978;DHT22;15314;49.248;6.968;2022-07-17T02:48:32;16.00;65.60
27978;DHT22;15314;49.248;6.968;2022-07-17T02:49:32;16.00;65.60
27978;DHT22;15314;49.248;6.968;2022-07-17T02:50:33;16.00;66.20
27978;DHT22;15314;49.248;6.968;2022-07-17T02:51:34;15.90;65.80
27978;DHT22;15314;49.248;6.968;2022-07-17T02:52:34;15.90;65.80
27978;DHT22;15314;49.248;6.968;2022-07-17T02:53:35;15.80;65.60
27978;DHT22;15314;49.248;6.968;2022-07-17T02:54:36;15.80;65.80
27978;DHT22;15314;49.248;6.968;2022-07-17T02:55:36;15.80;66.20
27978;DHT22;15314;49.248;6.968;2022-07-17T02:56:37;15.80;65.60
27978;DHT22;15314;49.248;6.968;2022-07-17T02:57:38;15.80;65.50
27978;DHT22;15314;49.248;6.968;2022-07-17T02:58:39;15.80;65.80
27978;DHT22;15314;49.248;6.968;2022-07-17T02:59:40;15.80;65.70
27978;DHT22;15314;49.248;6.968;2022-07-17T03:00:40;15.90;65.50
27978;DHT22;15314;49.248;6.968;2022-07-17T03:01:41;15.90;65.60
27978;DHT22;15314;49.248;6.968;2022-07-17T03:02:43;15.90;65.40
27978;DHT22;15314;49.248;6.968;2022-07-17T03:03:43;15.90;65.50
27978;DHT22;15314;49.248;6.968;2022-07-17T03:04:44;15.90;65.20
27978;DHT22;15314;49.248;6.968;2022-07-17T03:05:45;15.80;65.80
27978;DHT22;15314;49.248;6.968;2022-07-17T03:06:45;15.90;65.60
27978;DHT22;15314;49.248;6.968;2022-07-17T03:07:46;15.90;65.10
27978;DHT22;15314;49.248;6.968;2022-07-17T03:08:47;15.90;65.10
27978;DHT22;15314;49.248;6.968;2022-07-17T03:09:47;16.00;64.90
27978;DHT22;15314;49.248;6.968;2022-07-17T03:10:48;16.00;64.70
27978;DHT22;15314;49.248;6.968;2022-07-17T03:11:48;16.00;65.10
27978;DHT22;15314;49.248;6.968;2022-07-17T03:12:49;15.90;64.90
27978;DHT22;15314;49.248;6.968;2022-07-17T03:13:50;15.90;65.20
27978;DHT22;15314;49.248;6.968;2022-07-17T03:14:50;15.90;64.90
27978;DHT22;15314;49.248;6.968;2022-07-17T03:15:51;15.90;65.00
27978;DHT22;15314;49.248;6.968;2022-07-17T03:16:51;15.90;65.20
27978;DHT22;15314;49.248;6.968;2022-07-17T03:17:52;15.90;65.30
27978;DHT22;15314;49.248;6.968;2022-07-17T03:18:53;15.90;65.10
27978;DHT22;15314;49.248;6.968;2022-07-17T03:19:53;15.90;65.10
27978;DHT22;15314;49.248;6.968;2022-07-17T03:20:54;15.90;65.30
27978;DHT22;15314;49.248;6.968;2022-07-17T03:21:54;15.80;65.40
27978;DHT22;15314;49.248;6.968;2022-07-17T03:22:55;15.80;65.40
27978;DHT22;15314;49.248;6.968;2022-07-17T03:23:56;15.80;65.70
27978;DHT22;15314;49.248;6.968;2022-07-17T03:24:56;15.80;65.40
27978;DHT22;15314;49.248;6.968;2022-07-17T03:25:57;15.80;65.40
27978;DHT22;15314;49.248;6.968;2022-07-17T03:26:58;15.80;65.40
27978;DHT22;15314;49.248;6.968;2022-07-17T03:27:59;15.70;65.90
27978;DHT22;15314;49.248;6.968;2022-07-17T03:28:59;15.70;65.80
27978;DHT22;15314;49.248;6.968;2022-07-17T03:30:00;15.70;65.90
27978;DHT22;15314;49.248;6.968;2022-07-17T03:31:00;15.70;65.80
27978;DHT22;15314;49.248;6.968;2022-07-17T03:32:01;15.70;65.60
27978;DHT22;15314;49.248;6.968;2022-07-17T03:33:02;15.70;65.30
27978;DHT22;15314;49.248;6.968;2022-07-17T03:34:02;15.70;65.50
27978;DHT22;15314;49.248;6.968;2022-07-17T03:35:03;15.70;65.70
27978;DHT22;15314;49.248;6.968;2022-07-17T03:36:04;15.70;65.90
27978;DHT22;15314;49.248;6.968;2022-07-17T03:37:05;15.70;65.60
27978;DHT22;15314;49.248;6.968;2022-07-17T03:38:06;15.70;65.80
27978;DHT22;15314;49.248;6.968;2022-07-17T03:39:07;15.70;65.90
27978;DHT22;15314;49.248;6.968;2022-07-17T03:40:09;15.70;65.90
27978;DHT22;15314;49.248;6.968;2022-07-17T03:41:10;15.60;66.10
27978;DHT22;15314;49.248;6.968;2022-07-17T03:42:11;15.60;66.30
27978;DHT22;15314;49.248;6.968;2022-07-17T03:43:11;15.70;66.20
27978;DHT22;15314;49.248;6.968;2022-07-17T03:44:13;15.60;65.90
27978;DHT22;15314;49.248;6.968;2022-07-17T03:45:14;15.70;66.10
27978;DHT22;15314;49.248;6.968;2022-07-17T03:46:14;15.60;66.30
27978;DHT22;15314;49.248;6.968;2022-07-17T03:47:15;15.70;66.20
27978;DHT22;15314;49.248;6.968;2022-07-17T03:48:16;15.60;66.30
27978;DHT22;15314;49.248;6.968;2022-07-17T03:49:16;15.60;66.50
27978;DHT22;15314;49.248;6.968;2022-07-17T03:50:17;15.60;66.00
27978;DHT22;15314;49.248;6.968;2022-07-17T03:51:18;15.60;66.30
27978;DHT22;15314;49.248;6.968;2022-07-17T03:52:18;15.60;66.10
27978;DHT22;15314;49.248;6.968;2022-07-17T03:53:19;15.50;66.30
27978;DHT22;15314;49.248;6.968;2022-07-17T03:54:19;15.60;66.30
27978;DHT22;15314;49.248;6.968;2022-07-17T03:55:20;15.60;66.70
27978;DHT22;15314;49.248;6.968;2022-07-17T03:56:21;15.50;66.30
27978;DHT22;15314;49.248;6.968;2022-07-17T03:57:21;15.60;66.40
27978;DHT22;15314;49.248;6.968;2022-07-17T03:58:22;15.50;66.30
27978;DHT22;15314;49.248;6.968;2022-07-17T03:59:23;15.50;66.20
27978;DHT22;15314;49.248;6.968;2022-07-17T04:00:24;15.50;66.70
27978;DHT22;15314;49.248;6.968;2022-07-17T04:01:25;15.50;66.30
27978;DHT22;15314;49.248;6.968;2022-07-17T04:02:28;15.50;66.20
27978;DHT22;15314;49.248;6.968;2022-07-17T04:03:29;15.50;66.30
27978;DHT22;15314;49.248;6.968;2022-07-17T04:04:29;15.50;66.40
27978;DHT22;15314;49.248;6.968;2022-07-17T04:05:30;15.50;66.40
27978;DHT22;15314;49.248;6.968;2022-07-17T04:06:31;15.50;66.50
27978;DHT22;15314;49.248;6.968;2022-07-17T04:07:31;15.50;66.40
27978;DHT22;15314;49.248;6.968;2022-07-17T04:08:32;15.60;66.50
27978;DHT22;15314;49.248;6.968;2022-07-17T04:09:33;15.50;66.50
27978;DHT22;15314;49.248;6.968;2022-07-17T04:10:33;15.50;66.40
27978;DHT22;15314;49.248;6.968;2022-07-17T04:11:35;15.50;66.40
27978;DHT22;15314;49.248;6.968;2022-07-17T04:12:37;15.60;66.10
27978;DHT22;15314;49.248;6.968;2022-07-17T04:13:38;15.50;66.20
27978;DHT22;15314;49.248;6.968;2022-07-17T04:14:39;15.30;66.50
27978;DHT22;15314;49.248;6.968;2022-07-17T04:15:40;15.30;66.70
27978;DHT22;15314;49.248;6.968;2022-07-17T04:17:00;15.20;67.00
27978;DHT22;15314;49.248;6.968;2022-07-17T04:18:00;15.10;67.20
27978;DHT22;15314;49.248;6.968;2022-07-17T04:19:01;15.20;66.70
27978;DHT22;15314;49.248;6.968;2022-07-17T04:20:02;15.10;66.70
27978;DHT22;15314;49.248;6.968;2022-07-17T04:21:05;15.20;66.60
27978;DHT22;15314;49.248;6.968;2022-07-17T04:22:06;15.20;67.10
27978;DHT22;15314;49.248;6.968;2022-07-17T04:23:07;15.20;67.00
27978;DHT22;15314;49.248;6.968;2022-07-17T04:24:07;15.20;67.20
27978;DHT22;15314;49.248;6.968;2022-07-17T04:25:08;15.20;67.20
27978;DHT22;15314;49.248;6.968;2022-07-17T04:26:09;15.20;67.00
27978;DHT22;15314;49.248;6.968;2022-07-17T04:27:10;15.20;67.60
27978;DHT22;15314;49.248;6.968;2022-07-17T04:28:12;15.20;67.50
27978;DHT22;15314;49.248;6.968;2022-07-17T04:29:12;15.30;67.70
27978;DHT22;15314;49.248;6.968;2022-07-17T04:30:13;15.20;67.60
27978;DHT22;15314;49.248;6.968;2022-07-17T04:31:13;15.30;67.60
27978;DHT22;15314;49.248;6.968;2022-07-17T04:32:14;15.30;67.60
27978;DHT22;15314;49.248;6.968;2022-07-17T04:33:15;15.30;67.70
27978;DHT22;15314;49.248;6.968;2022-07-17T04:34:16;15.30;67.60
27978;DHT22;15314;49.248;6.968;2022-07-17T04:35:17;15.20;67.40
27978;DHT22;15314;49.248;6.968;2022-07-17T04:36:17;15.30;66.80
27978;DHT22;15314;49.248;6.968;2022-07-17T04:37:18;15.30;67.20
27978;DHT22;15314;49.248;6.968;2022-07-17T04:38:19;15.30;66.90
27978;DHT22;15314;49.248;6.968;2022-07-17T04:39:20;15.40;67.00
27978;DHT22;15314;49.248;6.968;2022-07-17T04:40:21;15.40;67.00
27978;DHT22;15314;49.248;6.968;2022-07-17T04:41:22;15.40;66.90
27978;DHT22;15314;49.248;6.968;2022-07-17T04:42:22;15.40;67.00
27978;DHT22;15314;49.248;6.968;2022-07-17T04:43:23;15.40;66.60
27978;DHT22;15314;49.248;6.968;2022-07-17T04:44:23;15.40;67.10
27978;DHT22;15314;49.248;6.968;2022-07-17T04:45:24;15.40;67.10
27978;DHT22;15314;49.248;6.968;2022-07-17T04:46:25;15.40;67.00
27978;DHT22;15314;49.248;6.968;2022-07-17T04:47:26;15.40;67.10
27978;DHT22;15314;49.248;6.968;2022-07-17T04:48:26;15.40;66.90
27978;DHT22;15314;49.248;6.968;2022-07-17T04:49:27;15.40;67.10
27978;DHT22;15314;49.248;6.968;2022-07-17T04:50:28;15.40;66.90
27978;DHT22;15314;49.248;6.968;2022-07-17T04:51:28;15.40;67.00
27978;DHT22;15314;49.248;6.968;2022-07-17T04:52:29;15.50;67.20
27978;DHT22;15314;49.248;6.968;2022-07-17T04:53:30;15.50;66.90
27978;DHT22;15314;49.248;6.968;2022-07-17T04:54:31;15.50;67.10
27978;DHT22;15314;49.248;6.968;2022-07-17T04:55:31;15.40;67.40
27978;DHT22;15314;49.248;6.968;2022-07-17T04:56:32;15.40;67.40
27978;DHT22;15314;49.248;6.968;2022-07-17T04:57:32;15.40;67.40
27978;DHT22;15314;49.248;6.968;2022-07-17T04:58:33;15.50;67.00
27978;DHT22;15314;49.248;6.968;2022-07-17T04:59:34;15.50;67.00
27978;DHT22;15314;49.248;6.968;2022-07-17T05:00:37;15.50;67.10
27978;DHT22;15314;49.248;6.968;2022-07-17T05:01:38;15.40;66.90
27978;DHT22;15314;49.248;6.968;2022-07-17T05:02:38;15.50;67.10
27978;DHT22;15314;49.248;6.968;2022-07-17T05:03:39;15.60;66.50
27978;DHT22;15314;49.248;6.968;2022-07-17T05:04:39;15.60;66.70
27978;DHT22;15314;49.248;6.968;2022-07-17T05:05:40;15.60;66.70
27978;DHT22;15314;49.248;6.968;2022-07-17T05:06:41;15.60;66.90
27978;DHT22;15314;49.248;6.968;2022-07-17T05:07:41;15.60;66.80
27978;DHT22;15314;49.248;6.968;2022-07-17T05:08:42;15.60;66.80
27978;DHT22;15314;49.248;6.968;2022-07-17T05:09:42;15.70;66.90
27978;DHT22;15314;49.248;6.968;2022-07-17T05:10:43;15.70;67.10
27978;DHT22;15314;49.248;6.968;2022-07-17T05:11:43;15.70;66.90
27978;DHT22;15314;49.248;6.968;2022-07-17T05:12:44;15.80;66.80
27978;DHT22;15314;49.248;6.968;2022-07-17T05:13:45;15.80;66.40
27978;DHT22;15314;49.248;6.968;2022-07-17T05:14:46;15.80;66.20
27978;DHT22;15314;49.248;6.968;2022-07-17T05:15:46;15.90;66.60
27978;DHT22;15314;49.248;6.968;2022-07-17T05:16:47;15.90;67.00
27978;DHT22;15314;49.248;6.968;2022-07-17T05:17:47;16.00;66.40
27978;DHT22;15314;49.248;6.968;2022-07-17T05:18:48;16.00;66.00
27978;DHT22;15314;49.248;6.968;2022-07-17T05:19:49;16.00;65.80
27978;DHT22;15314;49.248;6.968;2022-07-17T05:20:49;16.10;65.70
27978;DHT22;15314;49.248;6.968;2022-07-17T05:21:50;16.10;65.60
27978;DHT22;15314;49.248;6.968;2022-07-17T05:22:51;16.10;65.40
27978;DHT22;15314;49.248;6.968;2022-07-17T05:23:52;16.20;65.50
27978;DHT22;15314;49.248;6.968;2022-07-17T05:24:53;16.20;65.60
27978;DHT22;15314;49.248;6.968;2022-07-17T05:25:53;16.20;65.60
27978;DHT22;15314;49.248;6.968;2022-07-17T05:26:54;16.30;65.20
27978;DHT22;15314;49.248;6.968;2022-07-17T05:27:55;16.40;65.80
27978;DHT22;15314;49.248;6.968;2022-07-17T05:28:56;16.40;65.50
27978;DHT22;15314;49.248;6.968;2022-07-17T05:29:56;16.40;65.10
27978;DHT22;15314;49.248;6.968;2022-07-17T05:30:57;16.40;64.90
27978;DHT22;15314;49.248;6.968;2022-07-17T05:31:58;16.40;65.40
27978;DHT22;15314;49.248;6.968;2022-07-17T05:32:58;16.40;65.40
27978;DHT22;15314;49.248;6.968;2022-07-17T05:33:59;16.40;65.80
27978;DHT22;15314;49.248;6.968;2022-07-17T05:34:59;16.50;66.40
27978;DHT22;15314;49.248;6.968;2022-07-17T05:36:01;16.50;65.40
27978;DHT22;15314;49.248;6.968;2022-07-17T05:37:01;16.60;64.70
27978;DHT22;15314;49.248;6.968;2022-07-17T05:38:02;16.60;64.50
27978;DHT22;15314;49.248;6.968;2022-07-17T05:39:03;16.60;64.60
27978;DHT22;15314;49.248;6.968;2022-07-17T05:40:04;16.60;65.10
27978;DHT22;15314;49.248;6.968;2022-07-17T05:41:05;16.70;65.20
27978;DHT22;15314;49.248;6.968;2022-07-17T05:42:06;16.70;64.90
27978;DHT22;15314;49.248;6.968;2022-07-17T05:43:06;16.70;64.80
27978;DHT22;15314;49.248;6.968;2022-07-17T05:44:07;16.80;64.40
27978;DHT22;15314;49.248;6.968;2022-07-17T05:45:08;16.80;64.50
27978;DHT22;15314;49.248;6.968;2022-07-17T05:46:09;16.80;64.00
27978;DHT22;15314;49.248;6.968;2022-07-17T05:47:09;16.90;64.60
27978;DHT22;15314;49.248;6.968;2022-07-17T05:48:10;16.90;64.50
27978;DHT22;15314;49.248;6.968;2022-07-17T05:49:11;16.90;64.00
27978;DHT22;15314;49.248;6.968;2022-07-17T05:50:11;17.00;64.50
27978;DHT22;15314;49.248;6.968;2022-07-17T05:51:12;17.00;64.00
27978;DHT22;15314;49.248;6.968;2022-07-17T05:52:13;17.00;63.80
27978;DHT22;15314;49.248;6.968;2022-07-17T05:53:13;17.10;63.70
27978;DHT22;15314;49.248;6.968;2022-07-17T05:54:15;17.10;63.90
27978;DHT22;15314;49.248;6.968;2022-07-17T05:55:15;17.10;63.80
27978;DHT22;15314;49.248;6.968;2022-07-17T05:56:16;17.10;64.00
27978;DHT22;15314;49.248;6.968;2022-07-17T05:57:16;17.20;63.90
27978;DHT22;15314;49.248;6.968;2022-07-17T05:58:17;17.30;63.60
27978;DHT22;15314;49.248;6.968;2022-07-17T05:59:18;17.40;62.90
27978;DHT22;15314;49.248;6.968;2022-07-17T06:00:18;17.50;62.80
27978;DHT22;15314;49.248;6.968;2022-07-17T06:01:19;17.40;62.50
27978;DHT22;15314;49.248;6.968;2022-07-17T06:02:22;17.50;62.30
27978;DHT22;15314;49.248;6.968;2022-07-17T06:03:23;17.60;62.40
27978;DHT22;15314;49.248;6.968;2022-07-17T06:04:24;17.60;63.10
27978;DHT22;15314;49.248;6.968;2022-07-17T06:05:25;17.60;62.40
27978;DHT22;15314;49.248;6.968;2022-07-17T06:06:28;17.60;62.60
27978;DHT22;15314;49.248;6.968;2022-07-17T06:07:29;17.70;62.20
27978;DHT22;15314;49.248;6.968;2022-07-17T06:08:29;17.70;61.90
27978;DHT22;15314;49.248;6.968;2022-07-17T06:09:30;17.80;61.90
27978;DHT22;15314;49.248;6.968;2022-07-17T06:10:31;17.80;61.80
27978;DHT22;15314;49.248;6.968;2022-07-17T06:11:31;17.90;61.50
27978;DHT22;15314;49.248;6.968;2022-07-17T06:12:32;17.90;61.00
27978;DHT22;15314;49.248;6.968;2022-07-17T06:13:32;17.90;61.10
27978;DHT22;15314;49.248;6.968;2022-07-17T06:14:33;18.00;61.70
27978;DHT22;15314;49.248;6.968;2022-07-17T06:15:34;18.10;61.20
27978;DHT22;15314;49.248;6.968;2022-07-17T06:16:34;18.10;61.40
27978;DHT22;15314;49.248;6.968;2022-07-17T06:17:35;18.20;61.20
27978;DHT22;15314;49.248;6.968;2022-07-17T06:18:35;18.20;60.70
27978;DHT22;15314;49.248;6.968;2022-07-17T06:19:36;18.30;60.50
27978;DHT22;15314;49.248;6.968;2022-07-17T06:20:37;18.30;60.70
27978;DHT22;15314;49.248;6.968;2022-07-17T06:21:37;18.30;60.50
27978;DHT22;15314;49.248;6.968;2022-07-17T06:22:38;18.40;60.60
27978;DHT22;15314;49.248;6.968;2022-07-17T06:23:39;18.40;61.00
27978;DHT22;15314;49.248;6.968;2022-07-17T06:24:40;18.50;60.20